sensor_id;sensor_type;location;lat;lon;timestamp;P1;durP1;ratioP1;P2;durP2;ratioP2
27839;SDS011;15207;42.182;24.308;2023-08-31T00:00:10;4.50;;;2.05;;
27839;SDS011;15207;42.182;24.308;2023-08-31T00:02:38;5.40;;;1.80;;
27839;SDS011;15207;42.182;24.308;2023-08-31T00:05:04;3.65;;;1.75;;
27839;SDS011;15207;42.182;24.308;2023-08-31T00:07:30;3.95;;;1.95;;
27839;SDS011;15207;42.182;24.308;2023-08-31T00:09:56;6.00;;;2.10;;
27839;SDS011;15207;42.182;24.308;2023-08-31T00:12:23;3.10;;;1.70;;
27839;SDS011;15207;42.182;24.308;2023-08-31T00:14:49;5.15;;;1.70;;
27839;SDS011;15207;42.182;24.308;2023-08-31T00:17:15;2.90;;;1.70;;
27839;SDS011;15207;42.182;24.308;2023-08-31T00:19:41;4.25;;;2.35;;
27839;SDS011;15207;42.182;24.308;2023-08-31T00:22:06;5.70;;;2.25;;
27839;SDS011;15207;42.182;24.308;2023-08-31T00:24:32;3.90;;;2.10;;
27839;SDS011;15207;42.182;24.308;2023-08-31T00:27:00;6.10;;;1.90;;
27839;SDS011;15207;42.182;24.308;2023-08-31T00:29:26;4.20;;;2.00;;
27839;SDS011;15207;42.182;24.308;2023-08-31T00:31:52;3.78;;;1.92;;
27839;SDS011;15207;42.182;24.308;2023-08-31T00:36:44;9.65;;;2.20;;
27839;SDS011;15207;42.182;24.308;2023-08-31T00:41:36;3.50;;;1.80;;
27839;SDS011;15207;42.182;24.308;2023-08-31T00:44:02;6.50;;;2.25;;
27839;SDS011;15207;42.182;24.308;2023-08-31T00:46:30;5.05;;;2.10;;
27839;SDS011;15207;42.182;24.308;2023-08-31T00:48:56;3.60;;;1.70;;
27839;SDS011;15207;42.182;24.308;2023-08-31T00:51:23;5.05;;;1.90;;
27839;SDS011;15207;42.182;24.308;2023-08-31T00:53:49;7.25;;;2.15;;
27839;SDS011;15207;42.182;24.308;2023-08-31T00:56:18;4.00;;;1.90;;
27839;SDS011;15207;42.182;24.308;2023-08-31T00:58:44;10.40;;;2.00;;
27839;SDS011;15207;42.182;24.308;2023-08-31T01:06:58;3.05;;;1.90;;
27839;SDS011;15207;42.182;24.308;2023-08-31T01:17:16;3.05;;;1.65;;
27839;SDS011;15207;42.182;24.308;2023-08-31T01:19:50;6.05;;;1.90;;
27839;SDS011;15207;42.182;24.308;2023-08-31T01:25:16;2.70;;;1.80;;
27839;SDS011;15207;42.182;24.308;2023-08-31T01:27:43;4.05;;;2.10;;
27839;SDS011;15207;42.182;24.308;2023-08-31T01:30:08;6.80;;;1.90;;
27839;SDS011;15207;42.182;24.308;2023-08-31T01:32:34;4.20;;;1.80;;
27839;SDS011;15207;42.182;24.308;2023-08-31T01:40:12;6.40;;;2.50;;
27839;SDS011;15207;42.182;24.308;2023-08-31T01:42:43;3.90;;;1.75;;
27839;SDS011;15207;42.182;24.308;2023-08-31T01:47:40;4.65;;;1.55;;
27839;SDS011;15207;42.182;24.308;2023-08-31T01:50:06;4.05;;;1.70;;
27839;SDS011;15207;42.182;24.308;2023-08-31T01:52:32;5.15;;;1.85;;
27839;SDS011;15207;42.182;24.308;2023-08-31T01:54:57;4.40;;;1.75;;
27839;SDS011;15207;42.182;24.308;2023-08-31T01:57:23;3.50;;;1.70;;
27839;SDS011;15207;42.182;24.308;2023-08-31T01:59:48;2.70;;;1.35;;
27839;SDS011;15207;42.182;24.308;2023-08-31T02:02:14;4.35;;;1.95;;
27839;SDS011;15207;42.182;24.308;2023-08-31T02:04:39;5.70;;;2.20;;
27839;SDS011;15207;42.182;24.308;2023-08-31T02:07:05;5.20;;;2.10;;
27839;SDS011;15207;42.182;24.308;2023-08-31T02:11:56;4.60;;;2.10;;
27839;SDS011;15207;42.182;24.308;2023-08-31T02:14:21;4.10;;;1.60;;
27839;SDS011;15207;42.182;24.308;2023-08-31T02:16:47;3.30;;;1.70;;
27839;SDS011;15207;42.182;24.308;2023-08-31T02:19:13;3.85;;;1.55;;
27839;SDS011;15207;42.182;24.308;2023-08-31T02:21:38;4.30;;;2.00;;
27839;SDS011;15207;42.182;24.308;2023-08-31T02:24:04;4.70;;;2.10;;
27839;SDS011;15207;42.182;24.308;2023-08-31T02:26:30;6.80;;;2.00;;
27839;SDS011;15207;42.182;24.308;2023-08-31T02:28:55;6.70;;;1.90;;
27839;SDS011;15207;42.182;24.308;2023-08-31T02:31:21;4.53;;;1.60;;
27839;SDS011;15207;42.182;24.308;2023-08-31T02:33:46;3.55;;;2.00;;
27839;SDS011;15207;42.182;24.308;2023-08-31T02:36:12;4.10;;;1.90;;
27839;SDS011;15207;42.182;24.308;2023-08-31T02:41:03;3.00;;;1.80;;
27839;SDS011;15207;42.182;24.308;2023-08-31T02:46:01;5.20;;;1.85;;
27839;SDS011;15207;42.182;24.308;2023-08-31T02:48:27;7.20;;;2.10;;
27839;SDS011;15207;42.182;24.308;2023-08-31T02:50:54;3.97;;;1.77;;
27839;SDS011;15207;42.182;24.308;2023-08-31T02:53:21;4.55;;;2.15;;
27839;SDS011;15207;42.182;24.308;2023-08-31T02:55:47;5.60;;;1.60;;
27839;SDS011;15207;42.182;24.308;2023-08-31T02:58:13;4.00;;;1.90;;
27839;SDS011;15207;42.182;24.308;2023-08-31T03:03:07;3.80;;;1.80;;
27839;SDS011;15207;42.182;24.308;2023-08-31T03:05:33;3.10;;;1.70;;
27839;SDS011;15207;42.182;24.308;2023-08-31T03:07:59;3.30;;;1.80;;
27839;SDS011;15207;42.182;24.308;2023-08-31T03:12:50;3.30;;;1.90;;
27839;SDS011;15207;42.182;24.308;2023-08-31T03:15:15;6.20;;;2.00;;
27839;SDS011;15207;42.182;24.308;2023-08-31T03:17:41;3.60;;;1.90;;
27839;SDS011;15207;42.182;24.308;2023-08-31T03:20:07;3.55;;;1.95;;
27839;SDS011;15207;42.182;24.308;2023-08-31T03:22:32;2.55;;;1.65;;
27839;SDS011;15207;42.182;24.308;2023-08-31T03:24:58;3.60;;;1.60;;
27839;SDS011;15207;42.182;24.308;2023-08-31T03:27:24;4.40;;;2.00;;
27839;SDS011;15207;42.182;24.308;2023-08-31T03:29:50;4.60;;;1.90;;
27839;SDS011;15207;42.182;24.308;2023-08-31T03:34:41;6.70;;;2.20;;
27839;SDS011;15207;42.182;24.308;2023-08-31T03:37:06;6.60;;;2.30;;
27839;SDS011;15207;42.182;24.308;2023-08-31T03:39:32;2.60;;;1.55;;
27839;SDS011;15207;42.182;24.308;2023-08-31T03:41:58;3.85;;;1.80;;
27839;SDS011;15207;42.182;24.308;2023-08-31T03:44:24;2.60;;;1.80;;
27839;SDS011;15207;42.182;24.308;2023-08-31T03:49:14;4.40;;;1.70;;
27839;SDS011;15207;42.182;24.308;2023-08-31T03:51:40;13.10;;;2.30;;
27839;SDS011;15207;42.182;24.308;2023-08-31T03:58:56;4.90;;;1.90;;
27839;SDS011;15207;42.182;24.308;2023-08-31T04:03:48;4.50;;;1.80;;
27839;SDS011;15207;42.182;24.308;2023-08-31T04:06:14;4.10;;;2.00;;
27839;SDS011;15207;42.182;24.308;2023-08-31T04:08:39;2.78;;;1.65;;
27839;SDS011;15207;42.182;24.308;2023-08-31T04:11:04;10.65;;;2.20;;
27839;SDS011;15207;42.182;24.308;2023-08-31T04:13:30;6.00;;;2.45;;
27839;SDS011;15207;42.182;24.308;2023-08-31T04:15:55;7.35;;;2.22;;
27839;SDS011;15207;42.182;24.308;2023-08-31T04:18:21;6.00;;;2.10;;
27839;SDS011;15207;42.182;24.308;2023-08-31T04:20:50;2.95;;;1.85;;
27839;SDS011;15207;42.182;24.308;2023-08-31T04:23:17;4.20;;;2.10;;
27839;SDS011;15207;42.182;24.308;2023-08-31T04:28:11;2.85;;;1.77;;
27839;SDS011;15207;42.182;24.308;2023-08-31T04:30:37;5.20;;;2.43;;
27839;SDS011;15207;42.182;24.308;2023-08-31T04:33:02;3.70;;;2.00;;
27839;SDS011;15207;42.182;24.308;2023-08-31T04:35:29;3.20;;;1.80;;
27839;SDS011;15207;42.182;24.308;2023-08-31T04:37:56;3.45;;;1.60;;
27839;SDS011;15207;42.182;24.308;2023-08-31T04:40:22;12.80;;;2.30;;
27839;SDS011;15207;42.182;24.308;2023-08-31T04:47:38;4.10;;;2.30;;
27839;SDS011;15207;42.182;24.308;2023-08-31T04:50:03;4.80;;;2.30;;
27839;SDS011;15207;42.182;24.308;2023-08-31T04:52:31;4.60;;;1.90;;
27839;SDS011;15207;42.182;24.308;2023-08-31T04:54:57;3.40;;;1.80;;
27839;SDS011;15207;42.182;24.308;2023-08-31T04:57:23;2.50;;;1.80;;
27839;SDS011;15207;42.182;24.308;2023-08-31T04:59:49;7.60;;;2.30;;
27839;SDS011;15207;42.182;24.308;2023-08-31T05:04:40;4.80;;;2.10;;
27839;SDS011;15207;42.182;24.308;2023-08-31T05:07:05;14.40;;;2.90;;
27839;SDS011;15207;42.182;24.308;2023-08-31T05:09:31;28.55;;;3.30;;
27839;SDS011;15207;42.182;24.308;2023-08-31T05:12:00;6.00;;;3.00;;
27839;SDS011;15207;42.182;24.308;2023-08-31T05:14:26;4.70;;;2.10;;
27839;SDS011;15207;42.182;24.308;2023-08-31T05:16:51;2.80;;;1.60;;
27839;SDS011;15207;42.182;24.308;2023-08-31T05:24:08;5.30;;;1.60;;
27839;SDS011;15207;42.182;24.308;2023-08-31T05:26:33;2.90;;;1.75;;
27839;SDS011;15207;42.182;24.308;2023-08-31T05:28:58;4.30;;;1.70;;
27839;SDS011;15207;42.182;24.308;2023-08-31T05:31:24;4.50;;;2.00;;
27839;SDS011;15207;42.182;24.308;2023-08-31T05:33:49;3.45;;;1.70;;
27839;SDS011;15207;42.182;24.308;2023-08-31T05:36:15;7.75;;;1.80;;
27839;SDS011;15207;42.182;24.308;2023-08-31T05:38:41;6.50;;;2.60;;
27839;SDS011;15207;42.182;24.308;2023-08-31T05:41:07;5.85;;;1.90;;
27839;SDS011;15207;42.182;24.308;2023-08-31T05:43:34;4.25;;;1.70;;
27839;SDS011;15207;42.182;24.308;2023-08-31T05:46:00;4.10;;;2.10;;
27839;SDS011;15207;42.182;24.308;2023-08-31T05:48:25;2.80;;;1.80;;
27839;SDS011;15207;42.182;24.308;2023-08-31T05:50:51;5.20;;;2.00;;
27839;SDS011;15207;42.182;24.308;2023-08-31T05:53:17;5.20;;;1.90;;
27839;SDS011;15207;42.182;24.308;2023-08-31T05:55:42;3.80;;;2.00;;
27839;SDS011;15207;42.182;24.308;2023-08-31T05:58:08;6.00;;;2.00;;
27839;SDS011;15207;42.182;24.308;2023-08-31T06:00:33;3.60;;;1.50;;
27839;SDS011;15207;42.182;24.308;2023-08-31T06:05:26;4.95;;;1.70;;
27839;SDS011;15207;42.182;24.308;2023-08-31T06:07:54;3.90;;;1.90;;
27839;SDS011;15207;42.182;24.308;2023-08-31T06:10:19;4.90;;;1.70;;
27839;SDS011;15207;42.182;24.308;2023-08-31T06:12:44;7.30;;;1.80;;
27839;SDS011;15207;42.182;24.308;2023-08-31T06:15:10;2.75;;;1.45;;
27839;SDS011;15207;42.182;24.308;2023-08-31T06:17:35;18.20;;;2.40;;
27839;SDS011;15207;42.182;24.308;2023-08-31T06:20:01;4.60;;;1.40;;
27839;SDS011;15207;42.182;24.308;2023-08-31T06:22:27;4.30;;;2.00;;
27839;SDS011;15207;42.182;24.308;2023-08-31T06:24:52;3.90;;;1.80;;
27839;SDS011;15207;42.182;24.308;2023-08-31T06:27:18;3.60;;;1.90;;
27839;SDS011;15207;42.182;24.308;2023-08-31T06:29:43;2.70;;;1.40;;
27839;SDS011;15207;42.182;24.308;2023-08-31T06:32:09;2.70;;;1.50;;
27839;SDS011;15207;42.182;24.308;2023-08-31T06:34:34;6.40;;;1.50;;
27839;SDS011;15207;42.182;24.308;2023-08-31T06:37:00;8.10;;;1.70;;
27839;SDS011;15207;42.182;24.308;2023-08-31T06:39:25;4.40;;;2.10;;
27839;SDS011;15207;42.182;24.308;2023-08-31T06:41:51;7.90;;;2.20;;
27839;SDS011;15207;42.182;24.308;2023-08-31T06:44:16;7.10;;;1.70;;
27839;SDS011;15207;42.182;24.308;2023-08-31T06:46:42;6.60;;;1.70;;
27839;SDS011;15207;42.182;24.308;2023-08-31T06:49:08;6.70;;;1.40;;
27839;SDS011;15207;42.182;24.308;2023-08-31T06:51:34;7.60;;;1.60;;
27839;SDS011;15207;42.182;24.308;2023-08-31T06:54:00;9.95;;;1.80;;
27839;SDS011;15207;42.182;24.308;2023-08-31T06:56:34;3.90;;;1.40;;
27839;SDS011;15207;42.182;24.308;2023-08-31T06:59:00;5.70;;;1.40;;
27839;SDS011;15207;42.182;24.308;2023-08-31T07:01:27;7.25;;;1.55;;
27839;SDS011;15207;42.182;24.308;2023-08-31T07:03:53;4.40;;;1.40;;
27839;SDS011;15207;42.182;24.308;2023-08-31T07:06:19;5.70;;;1.40;;
27839;SDS011;15207;42.182;24.308;2023-08-31T07:08:44;6.90;;;1.40;;
27839;SDS011;15207;42.182;24.308;2023-08-31T07:11:13;2.93;;;1.20;;
27839;SDS011;15207;42.182;24.308;2023-08-31T07:13:39;3.00;;;1.10;;
27839;SDS011;15207;42.182;24.308;2023-08-31T07:16:05;7.53;;;1.67;;
27839;SDS011;15207;42.182;24.308;2023-08-31T07:18:30;5.70;;;1.20;;
27839;SDS011;15207;42.182;24.308;2023-08-31T07:20:56;2.40;;;1.20;;
27839;SDS011;15207;42.182;24.308;2023-08-31T07:23:22;9.70;;;1.70;;
27839;SDS011;15207;42.182;24.308;2023-08-31T07:25:48;2.70;;;1.30;;
27839;SDS011;15207;42.182;24.308;2023-08-31T07:28:14;2.70;;;1.10;;
27839;SDS011;15207;42.182;24.308;2023-08-31T07:30:39;2.65;;;1.00;;
27839;SDS011;15207;42.182;24.308;2023-08-31T07:33:05;3.70;;;1.20;;
27839;SDS011;15207;42.182;24.308;2023-08-31T07:37:57;8.30;;;1.30;;
27839;SDS011;15207;42.182;24.308;2023-08-31T07:40:22;6.60;;;1.30;;
27839;SDS011;15207;42.182;24.308;2023-08-31T07:42:48;4.90;;;1.85;;
27839;SDS011;15207;42.182;24.308;2023-08-31T07:45:14;3.83;;;1.07;;
27839;SDS011;15207;42.182;24.308;2023-08-31T07:50:04;3.40;;;1.00;;
27839;SDS011;15207;42.182;24.308;2023-08-31T07:52:31;2.50;;;1.30;;
27839;SDS011;15207;42.182;24.308;2023-08-31T07:54:57;4.40;;;1.20;;
27839;SDS011;15207;42.182;24.308;2023-08-31T07:57:22;1.45;;;0.90;;
27839;SDS011;15207;42.182;24.308;2023-08-31T07:59:48;2.30;;;0.80;;
27839;SDS011;15207;42.182;24.308;2023-08-31T08:02:13;2.10;;;1.10;;
27839;SDS011;15207;42.182;24.308;2023-08-31T08:04:41;2.10;;;1.00;;
27839;SDS011;15207;42.182;24.308;2023-08-31T08:07:06;3.70;;;1.20;;
27839;SDS011;15207;42.182;24.308;2023-08-31T08:09:33;5.55;;;1.38;;
27839;SDS011;15207;42.182;24.308;2023-08-31T08:14:25;1.90;;;1.10;;
27839;SDS011;15207;42.182;24.308;2023-08-31T08:16:51;2.50;;;1.50;;
27839;SDS011;15207;42.182;24.308;2023-08-31T08:19:22;1.30;;;0.90;;
27839;SDS011;15207;42.182;24.308;2023-08-31T08:21:48;4.20;;;1.00;;
27839;SDS011;15207;42.182;24.308;2023-08-31T08:24:14;7.00;;;1.00;;
27839;SDS011;15207;42.182;24.308;2023-08-31T08:29:05;3.50;;;1.10;;
27839;SDS011;15207;42.182;24.308;2023-08-31T08:31:30;2.00;;;0.90;;
27839;SDS011;15207;42.182;24.308;2023-08-31T08:36:21;5.55;;;1.65;;
27839;SDS011;15207;42.182;24.308;2023-08-31T08:38:47;3.60;;;1.10;;
27839;SDS011;15207;42.182;24.308;2023-08-31T08:41:13;4.50;;;1.10;;
27839;SDS011;15207;42.182;24.308;2023-08-31T08:43:39;4.00;;;1.15;;
27839;SDS011;15207;42.182;24.308;2023-08-31T08:48:35;2.60;;;1.25;;
27839;SDS011;15207;42.182;24.308;2023-08-31T08:51:03;2.00;;;1.00;;
27839;SDS011;15207;42.182;24.308;2023-08-31T08:53:29;7.00;;;0.90;;
27839;SDS011;15207;42.182;24.308;2023-08-31T08:55:55;2.10;;;1.10;;
27839;SDS011;15207;42.182;24.308;2023-08-31T08:58:20;3.30;;;1.30;;
27839;SDS011;15207;42.182;24.308;2023-08-31T09:00:46;2.20;;;1.20;;
27839;SDS011;15207;42.182;24.308;2023-08-31T09:03:12;3.30;;;1.00;;
27839;SDS011;15207;42.182;24.308;2023-08-31T09:05:38;1.30;;;0.77;;
27839;SDS011;15207;42.182;24.308;2023-08-31T09:13:10;2.20;;;0.95;;
27839;SDS011;15207;42.182;24.308;2023-08-31T09:18:27;2.10;;;1.00;;
27839;SDS011;15207;42.182;24.308;2023-08-31T09:23:19;6.20;;;1.00;;
27839;SDS011;15207;42.182;24.308;2023-08-31T09:25:47;3.10;;;1.20;;
27839;SDS011;15207;42.182;24.308;2023-08-31T09:28:18;2.15;;;0.95;;
27839;SDS011;15207;42.182;24.308;2023-08-31T09:30:46;2.60;;;1.20;;
27839;SDS011;15207;42.182;24.308;2023-08-31T09:33:13;1.80;;;1.10;;
27839;SDS011;15207;42.182;24.308;2023-08-31T09:38:16;2.55;;;0.95;;
27839;SDS011;15207;42.182;24.308;2023-08-31T09:40:41;1.80;;;1.00;;
27839;SDS011;15207;42.182;24.308;2023-08-31T09:45:33;2.10;;;0.90;;
27839;SDS011;15207;42.182;24.308;2023-08-31T09:48:00;4.05;;;1.35;;
27839;SDS011;15207;42.182;24.308;2023-08-31T09:55:27;2.40;;;1.10;;
27839;SDS011;15207;42.182;24.308;2023-08-31T09:57:57;5.00;;;1.85;;
27839;SDS011;15207;42.182;24.308;2023-08-31T10:00:25;2.70;;;1.00;;
27839;SDS011;15207;42.182;24.308;2023-08-31T10:02:52;4.70;;;1.20;;
27839;SDS011;15207;42.182;24.308;2023-08-31T10:07:47;2.30;;;1.20;;
27839;SDS011;15207;42.182;24.308;2023-08-31T10:10:14;2.80;;;1.20;;
27839;SDS011;15207;42.182;24.308;2023-08-31T10:12:40;2.35;;;1.20;;
27839;SDS011;15207;42.182;24.308;2023-08-31T10:15:08;2.55;;;1.25;;
27839;SDS011;15207;42.182;24.308;2023-08-31T10:17:35;3.70;;;1.20;;
27839;SDS011;15207;42.182;24.308;2023-08-31T10:22:28;2.20;;;1.15;;
27839;SDS011;15207;42.182;24.308;2023-08-31T10:25:02;3.40;;;1.70;;
27839;SDS011;15207;42.182;24.308;2023-08-31T10:27:37;5.45;;;1.80;;
27839;SDS011;15207;42.182;24.308;2023-08-31T10:35:51;7.90;;;1.45;;
27839;SDS011;15207;42.182;24.308;2023-08-31T10:41:03;7.70;;;1.60;;
27839;SDS011;15207;42.182;24.308;2023-08-31T10:46:26;4.25;;;1.50;;
27839;SDS011;15207;42.182;24.308;2023-08-31T10:51:34;1.80;;;1.20;;
27839;SDS011;15207;42.182;24.308;2023-08-31T10:54:04;3.75;;;1.20;;
27839;SDS011;15207;42.182;24.308;2023-08-31T10:56:30;2.80;;;1.50;;
27839;SDS011;15207;42.182;24.308;2023-08-31T10:59:00;3.20;;;1.20;;
27839;SDS011;15207;42.182;24.308;2023-08-31T11:04:16;2.00;;;1.30;;
27839;SDS011;15207;42.182;24.308;2023-08-31T11:06:42;2.30;;;1.65;;
27839;SDS011;15207;42.182;24.308;2023-08-31T11:11:43;4.70;;;1.50;;
27839;SDS011;15207;42.182;24.308;2023-08-31T11:14:09;2.40;;;1.20;;
27839;SDS011;15207;42.182;24.308;2023-08-31T11:16:37;3.60;;;1.30;;
27839;SDS011;15207;42.182;24.308;2023-08-31T11:19:03;2.20;;;1.30;;
27839;SDS011;15207;42.182;24.308;2023-08-31T11:21:30;2.10;;;1.30;;
27839;SDS011;15207;42.182;24.308;2023-08-31T11:23:56;3.50;;;1.60;;
27839;SDS011;15207;42.182;24.308;2023-08-31T11:26:24;3.15;;;1.50;;
27839;SDS011;15207;42.182;24.308;2023-08-31T11:28:50;4.70;;;1.40;;
27839;SDS011;15207;42.182;24.308;2023-08-31T11:31:23;4.30;;;1.50;;
27839;SDS011;15207;42.182;24.308;2023-08-31T11:33:49;2.80;;;1.15;;
27839;SDS011;15207;42.182;24.308;2023-08-31T11:36:14;2.10;;;1.10;;
27839;SDS011;15207;42.182;24.308;2023-08-31T11:38:43;3.30;;;1.60;;
27839;SDS011;15207;42.182;24.308;2023-08-31T11:41:09;2.50;;;1.30;;
27839;SDS011;15207;42.182;24.308;2023-08-31T11:46:00;3.80;;;1.60;;
27839;SDS011;15207;42.182;24.308;2023-08-31T11:48:26;11.50;;;1.70;;
27839;SDS011;15207;42.182;24.308;2023-08-31T11:50:52;5.10;;;1.80;;
27839;SDS011;15207;42.182;24.308;2023-08-31T11:53:18;3.10;;;1.30;;
27839;SDS011;15207;42.182;24.308;2023-08-31T11:55:50;4.00;;;1.50;;
27839;SDS011;15207;42.182;24.308;2023-08-31T11:58:16;4.55;;;1.40;;
27839;SDS011;15207;42.182;24.308;2023-08-31T12:00:45;4.20;;;1.70;;
27839;SDS011;15207;42.182;24.308;2023-08-31T12:03:19;3.40;;;1.10;;
27839;SDS011;15207;42.182;24.308;2023-08-31T12:05:45;2.15;;;1.15;;
27839;SDS011;15207;42.182;24.308;2023-08-31T12:08:12;3.00;;;1.20;;
27839;SDS011;15207;42.182;24.308;2023-08-31T12:10:42;5.10;;;1.30;;
27839;SDS011;15207;42.182;24.308;2023-08-31T12:13:08;4.60;;;1.60;;
27839;SDS011;15207;42.182;24.308;2023-08-31T12:15:34;4.30;;;1.30;;
27839;SDS011;15207;42.182;24.308;2023-08-31T12:18:06;3.20;;;1.80;;
27839;SDS011;15207;42.182;24.308;2023-08-31T12:20:32;3.70;;;1.50;;
27839;SDS011;15207;42.182;24.308;2023-08-31T12:23:05;4.50;;;1.60;;
27839;SDS011;15207;42.182;24.308;2023-08-31T12:25:35;2.40;;;1.30;;
27839;SDS011;15207;42.182;24.308;2023-08-31T12:28:00;2.70;;;1.30;;
27839;SDS011;15207;42.182;24.308;2023-08-31T12:30:26;2.85;;;1.40;;
27839;SDS011;15207;42.182;24.308;2023-08-31T12:32:51;2.50;;;1.35;;
27839;SDS011;15207;42.182;24.308;2023-08-31T12:35:17;4.80;;;1.70;;
27839;SDS011;15207;42.182;24.308;2023-08-31T12:37:43;6.80;;;1.65;;
27839;SDS011;15207;42.182;24.308;2023-08-31T12:40:08;7.10;;;1.60;;
27839;SDS011;15207;42.182;24.308;2023-08-31T12:42:35;5.10;;;1.60;;
27839;SDS011;15207;42.182;24.308;2023-08-31T12:47:26;12.20;;;1.95;;
27839;SDS011;15207;42.182;24.308;2023-08-31T12:49:51;12.23;;;1.67;;
27839;SDS011;15207;42.182;24.308;2023-08-31T12:52:17;2.50;;;1.20;;
27839;SDS011;15207;42.182;24.308;2023-08-31T12:54:43;2.30;;;1.10;;
27839;SDS011;15207;42.182;24.308;2023-08-31T13:01:59;4.45;;;1.75;;
27839;SDS011;15207;42.182;24.308;2023-08-31T13:04:24;2.40;;;1.50;;
27839;SDS011;15207;42.182;24.308;2023-08-31T13:11:41;4.55;;;1.70;;
27839;SDS011;15207;42.182;24.308;2023-08-31T13:14:06;7.30;;;1.70;;
27839;SDS011;15207;42.182;24.308;2023-08-31T13:16:32;4.55;;;1.80;;
27839;SDS011;15207;42.182;24.308;2023-08-31T13:18:58;15.35;;;2.00;;
27839;SDS011;15207;42.182;24.308;2023-08-31T13:21:23;4.60;;;1.50;;
27839;SDS011;15207;42.182;24.308;2023-08-31T13:23:49;10.00;;;2.30;;
27839;SDS011;15207;42.182;24.308;2023-08-31T13:26:16;39.40;;;3.40;;
27839;SDS011;15207;42.182;24.308;2023-08-31T13:28:43;4.25;;;1.80;;
27839;SDS011;15207;42.182;24.308;2023-08-31T13:31:08;3.70;;;1.80;;
27839;SDS011;15207;42.182;24.308;2023-08-31T13:33:34;1.80;;;1.20;;
27839;SDS011;15207;42.182;24.308;2023-08-31T13:36:00;6.50;;;1.50;;
27839;SDS011;15207;42.182;24.308;2023-08-31T13:38:25;2.23;;;1.47;;
27839;SDS011;15207;42.182;24.308;2023-08-31T13:40:54;4.20;;;1.90;;
27839;SDS011;15207;42.182;24.308;2023-08-31T13:43:23;3.40;;;1.90;;
27839;SDS011;15207;42.182;24.308;2023-08-31T13:48:15;2.90;;;1.80;;
27839;SDS011;15207;42.182;24.308;2023-08-31T13:50:40;2.90;;;1.50;;
27839;SDS011;15207;42.182;24.308;2023-08-31T13:53:06;7.80;;;2.00;;
27839;SDS011;15207;42.182;24.308;2023-08-31T13:55:32;3.70;;;1.80;;
27839;SDS011;15207;42.182;24.308;2023-08-31T13:58:06;5.85;;;2.10;;
27839;SDS011;15207;42.182;24.308;2023-08-31T14:03:01;6.80;;;1.65;;
27839;SDS011;15207;42.182;24.308;2023-08-31T14:07:55;7.05;;;1.95;;
27839;SDS011;15207;42.182;24.308;2023-08-31T14:10:20;3.40;;;1.70;;
27839;SDS011;15207;42.182;24.308;2023-08-31T14:12:46;4.10;;;1.50;;
27839;SDS011;15207;42.182;24.308;2023-08-31T14:15:12;2.90;;;1.80;;
27839;SDS011;15207;42.182;24.308;2023-08-31T14:17:38;3.00;;;1.80;;
27839;SDS011;15207;42.182;24.308;2023-08-31T14:24:58;5.00;;;2.10;;
27839;SDS011;15207;42.182;24.308;2023-08-31T14:27:25;5.10;;;2.00;;
27839;SDS011;15207;42.182;24.308;2023-08-31T14:32:15;3.50;;;1.60;;
27839;SDS011;15207;42.182;24.308;2023-08-31T14:34:41;3.80;;;1.80;;
27839;SDS011;15207;42.182;24.308;2023-08-31T14:39:32;5.00;;;2.00;;
27839;SDS011;15207;42.182;24.308;2023-08-31T14:41:57;6.35;;;1.95;;
27839;SDS011;15207;42.182;24.308;2023-08-31T14:44:23;5.60;;;2.00;;
27839;SDS011;15207;42.182;24.308;2023-08-31T14:46:49;4.10;;;2.30;;
27839;SDS011;15207;42.182;24.308;2023-08-31T14:49:15;3.35;;;2.10;;
27839;SDS011;15207;42.182;24.308;2023-08-31T14:51:40;4.40;;;2.10;;
27839;SDS011;15207;42.182;24.308;2023-08-31T14:54:06;3.40;;;1.90;;
27839;SDS011;15207;42.182;24.308;2023-08-31T14:56:31;2.40;;;1.50;;
27839;SDS011;15207;42.182;24.308;2023-08-31T14:58:57;2.70;;;1.60;;
27839;SDS011;15207;42.182;24.308;2023-08-31T15:01:22;3.55;;;1.90;;
27839;SDS011;15207;42.182;24.308;2023-08-31T15:03:50;3.80;;;1.90;;
27839;SDS011;15207;42.182;24.308;2023-08-31T15:11:07;3.00;;;1.65;;
27839;SDS011;15207;42.182;24.308;2023-08-31T15:13:32;4.20;;;2.00;;
27839;SDS011;15207;42.182;24.308;2023-08-31T15:15:58;3.30;;;2.10;;
27839;SDS011;15207;42.182;24.308;2023-08-31T15:18:26;3.20;;;1.90;;
27839;SDS011;15207;42.182;24.308;2023-08-31T15:20:52;5.90;;;2.25;;
27839;SDS011;15207;42.182;24.308;2023-08-31T15:23:18;4.00;;;2.00;;
27839;SDS011;15207;42.182;24.308;2023-08-31T15:28:09;4.30;;;2.40;;
27839;SDS011;15207;42.182;24.308;2023-08-31T15:30:35;4.20;;;2.50;;
27839;SDS011;15207;42.182;24.308;2023-08-31T15:33:01;4.75;;;2.70;;
27839;SDS011;15207;42.182;24.308;2023-08-31T15:35:28;5.30;;;2.75;;
27839;SDS011;15207;42.182;24.308;2023-08-31T15:37:54;5.80;;;2.60;;
27839;SDS011;15207;42.182;24.308;2023-08-31T15:42:46;5.35;;;3.00;;
27839;SDS011;15207;42.182;24.308;2023-08-31T15:45:12;3.30;;;2.10;;
27839;SDS011;15207;42.182;24.308;2023-08-31T15:47:37;3.90;;;2.20;;
27839;SDS011;15207;42.182;24.308;2023-08-31T15:50:03;3.95;;;2.35;;
27839;SDS011;15207;42.182;24.308;2023-08-31T15:52:29;6.40;;;2.50;;
27839;SDS011;15207;42.182;24.308;2023-08-31T15:54:55;6.20;;;2.50;;
27839;SDS011;15207;42.182;24.308;2023-08-31T15:57:20;4.00;;;2.50;;
27839;SDS011;15207;42.182;24.308;2023-08-31T15:59:46;5.10;;;2.40;;
27839;SDS011;15207;42.182;24.308;2023-08-31T16:02:12;4.25;;;2.35;;
27839;SDS011;15207;42.182;24.308;2023-08-31T16:04:40;6.10;;;2.45;;
27839;SDS011;15207;42.182;24.308;2023-08-31T16:07:08;3.80;;;2.40;;
27839;SDS011;15207;42.182;24.308;2023-08-31T16:09:34;6.40;;;2.65;;
27839;SDS011;15207;42.182;24.308;2023-08-31T16:12:00;5.15;;;2.85;;
27839;SDS011;15207;42.182;24.308;2023-08-31T16:14:27;3.70;;;2.00;;
27839;SDS011;15207;42.182;24.308;2023-08-31T16:16:54;4.20;;;2.20;;
27839;SDS011;15207;42.182;24.308;2023-08-31T16:19:20;5.75;;;2.80;;
27839;SDS011;15207;42.182;24.308;2023-08-31T16:21:45;3.90;;;2.40;;
27839;SDS011;15207;42.182;24.308;2023-08-31T16:24:11;5.40;;;2.40;;
27839;SDS011;15207;42.182;24.308;2023-08-31T16:26:36;3.80;;;2.40;;
27839;SDS011;15207;42.182;24.308;2023-08-31T16:29:02;3.35;;;1.95;;
27839;SDS011;15207;42.182;24.308;2023-08-31T16:31:29;5.40;;;2.40;;
27839;SDS011;15207;42.182;24.308;2023-08-31T16:33:55;5.10;;;2.63;;
27839;SDS011;15207;42.182;24.308;2023-08-31T16:36:20;3.90;;;2.30;;
27839;SDS011;15207;42.182;24.308;2023-08-31T16:38:46;15.50;;;3.20;;
27839;SDS011;15207;42.182;24.308;2023-08-31T16:43:36;7.50;;;2.30;;
27839;SDS011;15207;42.182;24.308;2023-08-31T16:46:02;16.55;;;3.20;;
27839;SDS011;15207;42.182;24.308;2023-08-31T16:48:28;15.35;;;3.45;;
27839;SDS011;15207;42.182;24.308;2023-08-31T16:55:45;14.50;;;2.20;;
27839;SDS011;15207;42.182;24.308;2023-08-31T16:58:10;7.75;;;2.35;;
27839;SDS011;15207;42.182;24.308;2023-08-31T17:00:36;13.20;;;2.50;;
27839;SDS011;15207;42.182;24.308;2023-08-31T17:05:28;7.40;;;1.80;;
27839;SDS011;15207;42.182;24.308;2023-08-31T17:07:54;13.10;;;2.25;;
27839;SDS011;15207;42.182;24.308;2023-08-31T17:10:20;9.30;;;2.25;;
27839;SDS011;15207;42.182;24.308;2023-08-31T17:12:45;5.40;;;2.35;;
27839;SDS011;15207;42.182;24.308;2023-08-31T17:15:11;6.10;;;1.60;;
27839;SDS011;15207;42.182;24.308;2023-08-31T17:20:02;6.05;;;2.05;;
27839;SDS011;15207;42.182;24.308;2023-08-31T17:24:56;4.20;;;1.90;;
27839;SDS011;15207;42.182;24.308;2023-08-31T17:27:23;4.95;;;1.70;;
27839;SDS011;15207;42.182;24.308;2023-08-31T17:32:15;5.37;;;1.93;;
27839;SDS011;15207;42.182;24.308;2023-08-31T17:34:40;5.70;;;2.00;;